Time;durP1;ratioP1;P1;durP2;ratioP2;P2;SDS_P1;SDS_P2;PMS_P1;PMS_P2;Temp;Humidity;BMP_temperature;BMP_pressure;BME280_temperature;BME280_humidity;BME280_pressure;Samples;Min_cycle;Max_cycle;Signal;HPM_P1;HPM_P2
2024/01/18 00:02:09;;;;;;;;;;;8.30;99.90;;;;;;5115878;28;19904;-74
2024/01/18 00:04:34;;;;;;;;;;;8.30;99.90;;;;;;5117169;28;19914;-73
2024/01/18 00:07:00;;;;;;;;;;;8.30;99.90;;;;;;5117142;28;19907;-73
2024/01/18 00:09:26;;;;;;;;;;;8.20;99.90;;;;;;5115977;28;19904;-73
2024/01/18 00:11:51;;;;;;;;;;;8.20;99.90;;;;;;5117403;28;20283;-73
2024/01/18 00:14:17;;;;;;;;;;;8.10;99.90;;;;;;5115886;28;19903;-73
2024/01/18 00:16:42;;;;;;;;;;;8.10;99.90;;;;;;5108146;28;19907;-73
2024/01/18 00:19:08;;;;;;;;;;;8.10;99.90;;;;;;5115646;28;20431;-73
2024/01/18 00:21:33;;;;;;;;;;;8.10;99.90;;;;;;5115793;28;19903;-73
2024/01/18 00:23:59;;;;;;;;;;;8.10;99.90;;;;;;5117101;28;19992;-73
2024/01/18 00:26:25;;;;;;;;;;;8.10;99.90;;;;;;5116966;28;19904;-74
2024/01/18 00:28:50;;;;;;;;;;;8.10;99.90;;;;;;5115584;28;19914;-74
2024/01/18 00:31:16;;;;;;;;;;;8.10;99.90;;;;;;5116793;28;19914;-73
2024/01/18 00:33:41;;;;;;;;;;;8.10;99.90;;;;;;5116689;27;19930;-73
2024/01/18 00:36:07;;;;;;;;;;;8.20;99.90;;;;;;5115255;28;19930;-73
2024/01/18 00:38:32;;;;;;;;;;;8.20;99.90;;;;;;5115240;28;19907;-73
2024/01/18 00:40:58;;;;;;;;;;;8.20;99.90;;;;;;5116315;28;20349;-73
2024/01/18 00:43:23;;;;;;;;;;;8.30;99.90;;;;;;5116604;28;20387;-73
2024/01/18 00:45:49;;;;;;;;;;;8.30;99.90;;;;;;5115056;28;19928;-73
2024/01/18 00:48:14;;;;;;;;;;;8.30;99.90;;;;;;5116838;28;20384;-74
2024/01/18 00:50:40;;;;;;;;;;;8.30;99.90;;;;;;5116373;28;20596;-75
2024/01/18 00:53:05;;;;;;;;;;;8.40;99.90;;;;;;5116502;28;19912;-73
2024/01/18 00:55:32;;;;;;;;;;;8.60;99.90;;;;;;5114667;28;19964;-73
2024/01/18 00:57:58;;;;;;;;;;;8.70;99.90;;;;;;5116515;28;19907;-74
2024/01/18 01:00:23;;;;;;;;;;;8.80;99.90;;;;;;5116480;28;19904;-73
2024/01/18 01:02:51;;;;;;;;;;;8.80;99.90;;;;;;5116546;28;19908;-74
2024/01/18 01:05:16;;;;;;;;;;;8.80;99.90;;;;;;5114461;28;19921;-74
2024/01/18 01:07:42;;;;;;;;;;;8.70;99.90;;;;;;5116308;28;20344;-74
2024/01/18 01:10:08;;;;;;;;;;;8.70;99.90;;;;;;5114894;28;20360;-73
2024/01/18 01:12:33;;;;;;;;;;;8.70;99.90;;;;;;5108248;28;20440;-73
2024/01/18 01:14:59;;;;;;;;;;;8.70;99.90;;;;;;5102377;28;20295;-73
2024/01/18 01:17:24;;;;;;;;;;;8.70;99.90;;;;;;5107578;28;19907;-73
2024/01/18 01:19:50;;;;;;;;;;;8.80;99.90;;;;;;5119504;28;19907;-74
2024/01/18 01:22:15;;;;;;;;;;;8.80;99.90;;;;;;5123078;27;19903;-73
2024/01/18 01:24:41;;;;;;;;;;;8.90;99.90;;;;;;5121881;28;20233;-73
2024/01/18 01:27:06;;;;;;;;;;;8.90;99.90;;;;;;5123020;27;20402;-73
2024/01/18 01:29:32;;;;;;;;;;;8.90;99.90;;;;;;5121396;28;19918;-73
2024/01/18 01:31:58;;;;;;;;;;;8.90;99.90;;;;;;5123061;27;19908;-74
2024/01/18 01:34:23;;;;;;;;;;;8.80;99.90;;;;;;5122628;27;19928;-74
2024/01/18 01:36:49;;;;;;;;;;;8.70;99.90;;;;;;5122940;27;19929;-73
2024/01/18 01:39:14;;;;;;;;;;;8.70;99.90;;;;;;5121570;28;19929;-73
2024/01/18 01:41:40;;;;;;;;;;;8.60;99.90;;;;;;5123086;27;19907;-73
2024/01/18 01:44:05;;;;;;;;;;;8.50;99.90;;;;;;5122779;27;19908;-73
2024/01/18 01:46:31;;;;;;;;;;;8.40;99.90;;;;;;5121802;28;20002;-73
2024/01/18 01:49:00;;;;;;;;;;;8.40;99.90;;;;;;5122488;27;19943;-73
2024/01/18 01:51:32;;;;;;;;;;;8.30;99.90;;;;;;5121475;27;19908;-73
2024/01/18 01:53:58;;;;;;;;;;;8.20;99.90;;;;;;5122504;27;19911;-73
2024/01/18 01:56:23;;;;;;;;;;;8.10;99.90;;;;;;5122943;27;19958;-73
2024/01/18 01:58:50;;;;;;;;;;;8.10;99.90;;;;;;5122655;27;19911;-73
2024/01/18 02:01:15;;;;;;;;;;;8.00;99.90;;;;;;5123032;27;19903;-74
2024/01/18 02:03:41;;;;;;;;;;;8.00;99.90;;;;;;5122656;27;20218;-73
2024/01/18 02:06:09;;;;;;;;;;;7.90;99.90;;;;;;5123037;27;20391;-73
2024/01/18 02:08:35;;;;;;;;;;;7.80;99.90;;;;;;5114819;28;19926;-73
2024/01/18 02:11:00;;;;;;;;;;;7.90;99.90;;;;;;5114106;28;19903;-73
2024/01/18 02:13:26;;;;;;;;;;;8.00;99.90;;;;;;5122253;27;19998;-73
2024/01/18 02:15:51;;;;;;;;;;;7.90;99.90;;;;;;5114406;27;19912;-73
2024/01/18 02:18:17;;;;;;;;;;;7.90;99.90;;;;;;5121402;28;19911;-73
2024/01/18 02:20:42;;;;;;;;;;;7.80;99.90;;;;;;5121030;27;19915;-73
2024/01/18 02:23:08;;;;;;;;;;;7.80;99.90;;;;;;5120864;28;19907;-73
2024/01/18 02:25:34;;;;;;;;;;;7.70;99.90;;;;;;5121297;28;19907;-74
2024/01/18 02:27:59;;;;;;;;;;;7.70;99.90;;;;;;5122387;27;19910;-73
2024/01/18 02:30:25;;;;;;;;;;;7.70;99.90;;;;;;5120661;27;19904;-73
2024/01/18 02:32:51;;;;;;;;;;;7.80;99.90;;;;;;5119087;28;19916;-73
2024/01/18 02:35:16;;;;;;;;;;;7.80;99.90;;;;;;5117936;28;19903;-73
2024/01/18 02:37:42;;;;;;;;;;;7.90;99.90;;;;;;5119127;28;19962;-73
2024/01/18 02:40:08;;;;;;;;;;;8.00;99.90;;;;;;5118112;28;20357;-73
2024/01/18 02:42:34;;;;;;;;;;;8.00;99.90;;;;;;5117753;28;19908;-74
2024/01/18 02:45:01;;;;;;;;;;;8.10;99.90;;;;;;5119265;28;19957;-73
2024/01/18 02:47:28;;;;;;;;;;;8.10;99.90;;;;;;5115514;28;19911;-74
2024/01/18 02:49:54;;;;;;;;;;;8.20;99.90;;;;;;5117303;28;19908;-74
2024/01/18 02:52:20;;;;;;;;;;;8.20;99.90;;;;;;5118885;28;19912;-74
2024/01/18 02:54:45;;;;;;;;;;;8.30;99.90;;;;;;5118683;28;19965;-74
2024/01/18 02:57:11;;;;;;;;;;;8.30;99.90;;;;;;5118866;28;19962;-74
2024/01/18 02:59:37;;;;;;;;;;;8.40;99.90;;;;;;5117133;28;19957;-73
2024/01/18 03:02:02;;;;;;;;;;;8.40;99.90;;;;;;5118505;28;19914;-73
2024/01/18 03:04:28;;;;;;;;;;;8.40;99.90;;;;;;5118562;28;19914;-74
2024/01/18 03:06:53;;;;;;;;;;;8.40;99.90;;;;;;5116926;28;19903;-73
2024/01/18 03:09:19;;;;;;;;;;;8.40;99.90;;;;;;5118809;28;19907;-73
2024/01/18 03:11:44;;;;;;;;;;;8.40;99.90;;;;;;5110224;28;19908;-74
2024/01/18 03:14:10;;;;;;;;;;;8.30;99.90;;;;;;5117401;28;19916;-74
2024/01/18 03:16:37;;;;;;;;;;;8.30;99.90;;;;;;5110332;28;19904;-74
2024/01/18 03:19:02;;;;;;;;;;;8.40;99.90;;;;;;5118133;28;19996;-74
2024/01/18 03:21:28;;;;;;;;;;;8.40;99.90;;;;;;5118322;28;19911;-74
2024/01/18 03:23:53;;;;;;;;;;;8.40;99.90;;;;;;5118423;27;19973;-74
2024/01/18 03:26:19;;;;;;;;;;;8.40;99.90;;;;;;5116862;28;19955;-74
2024/01/18 03:28:44;;;;;;;;;;;8.50;99.90;;;;;;5117059;28;19941;-74
2024/01/18 03:31:13;;;;;;;;;;;8.50;99.90;;;;;;5117992;28;19915;-74
2024/01/18 03:33:38;;;;;;;;;;;8.50;99.90;;;;;;5118016;28;19979;-74
2024/01/18 03:36:05;;;;;;;;;;;8.50;99.90;;;;;;5118044;28;20415;-74
2024/01/18 03:38:30;;;;;;;;;;;8.50;99.90;;;;;;5117832;28;19908;-73
2024/01/18 03:40:56;;;;;;;;;;;8.50;99.90;;;;;;5117842;28;19949;-74
2024/01/18 03:43:21;;;;;;;;;;;8.40;99.90;;;;;;5116159;28;20492;-74
2024/01/18 03:45:47;;;;;;;;;;;8.40;99.90;;;;;;5117698;28;19904;-74
2024/01/18 03:48:12;;;;;;;;;;;8.30;99.90;;;;;;5103785;28;20382;-74
2024/01/18 03:50:38;;;;;;;;;;;8.30;99.90;;;;;;5116105;28;19904;-74
2024/01/18 03:53:04;;;;;;;;;;;8.20;99.90;;;;;;5116257;28;19907;-74
2024/01/18 03:55:29;;;;;;;;;;;8.20;99.90;;;;;;5115870;28;19947;-74
2024/01/18 03:57:55;;;;;;;;;;;8.10;99.90;;;;;;5117947;28;19919;-74
2024/01/18 04:00:20;;;;;;;;;;;8.10;99.90;;;;;;5116852;27;19914;-73
2024/01/18 04:02:46;;;;;;;;;;;8.10;99.90;;;;;;5109784;28;19908;-73
2024/01/18 04:05:11;;;;;;;;;;;8.00;99.90;;;;;;5108741;28;19911;-73
2024/01/18 04:07:38;;;;;;;;;;;8.00;99.90;;;;;;5116997;28;19904;-74
2024/01/18 04:10:04;;;;;;;;;;;8.00;99.90;;;;;;5117300;28;20379;-74
2024/01/18 04:12:29;;;;;;;;;;;7.90;99.90;;;;;;5115328;28;20291;-73
2024/01/18 04:14:55;;;;;;;;;;;7.90;99.90;;;;;;5116190;28;19908;-73
2024/01/18 04:17:20;;;;;;;;;;;7.90;99.90;;;;;;5113501;28;19912;-73
2024/01/18 04:19:46;;;;;;;;;;;7.90;99.90;;;;;;5117171;28;19908;-74
2024/01/18 04:22:11;;;;;;;;;;;7.90;99.90;;;;;;5115400;28;19949;-73
2024/01/18 04:24:37;;;;;;;;;;;7.90;99.90;;;;;;5117185;28;20001;-73
2024/01/18 04:27:02;;;;;;;;;;;7.90;99.90;;;;;;5116986;28;19908;-73
2024/01/18 04:29:28;;;;;;;;;;;8.00;99.90;;;;;;5117135;28;19903;-73
2024/01/18 04:31:54;;;;;;;;;;;7.90;99.90;;;;;;5115582;28;19973;-74
2024/01/18 04:34:19;;;;;;;;;;;8.00;99.90;;;;;;5110685;28;19908;-74
2024/01/18 04:36:45;;;;;;;;;;;8.00;99.90;;;;;;5106833;28;19904;-73
2024/01/18 04:39:10;;;;;;;;;;;8.00;99.90;;;;;;5115213;28;19915;-74
2024/01/18 04:41:36;;;;;;;;;;;8.00;99.90;;;;;;5116918;28;19908;-73
2024/01/18 04:44:01;;;;;;;;;;;8.00;99.90;;;;;;5106917;28;20447;-73
2024/01/18 04:46:27;;;;;;;;;;;8.00;99.90;;;;;;5116999;27;19911;-73
2024/01/18 04:48:52;;;;;;;;;;;8.00;99.90;;;;;;5114942;28;19962;-73
2024/01/18 04:51:19;;;;;;;;;;;8.00;99.90;;;;;;5116614;28;19903;-74
2024/01/18 04:53:45;;;;;;;;;;;8.00;99.90;;;;;;5115757;28;19977;-73
2024/01/18 04:56:10;;;;;;;;;;;8.00;99.90;;;;;;5115130;28;19919;-73
2024/01/18 04:58:36;;;;;;;;;;;8.00;99.90;;;;;;5116806;28;19907;-73
2024/01/18 05:01:02;;;;;;;;;;;8.10;99.90;;;;;;5116422;28;19946;-73
2024/01/18 05:03:27;;;;;;;;;;;8.10;99.90;;;;;;5114751;28;19914;-73
2024/01/18 05:05:55;;;;;;;;;;;8.10;99.90;;;;;;5116575;28;20321;-73
2024/01/18 05:08:20;;;;;;;;;;;8.10;99.90;;;;;;5114811;28;19960;-73
2024/01/18 05:10:46;;;;;;;;;;;8.10;99.90;;;;;;5116595;28;20401;-73
2024/01/18 05:13:11;;;;;;;;;;;8.10;99.90;;;;;;5107910;28;20456;-73
2024/01/18 05:15:37;;;;;;;;;;;8.10;99.90;;;;;;5109316;28;19972;-73
2024/01/18 05:18:03;;;;;;;;;;;8.00;99.90;;;;;;5113858;28;19912;-73
2024/01/18 05:20:28;;;;;;;;;;;8.10;99.90;;;;;;5114984;28;19903;-73
2024/01/18 05:22:54;;;;;;;;;;;8.00;99.90;;;;;;5116131;28;19907;-73
2024/01/18 05:25:21;;;;;;;;;;;8.10;99.90;;;;;;5116479;28;19904;-73
2024/01/18 05:27:46;;;;;;;;;;;8.00;99.90;;;;;;5116307;27;20351;-73
2024/01/18 05:30:12;;;;;;;;;;;8.00;99.90;;;;;;5116152;28;19911;-73
2024/01/18 05:32:38;;;;;;;;;;;8.00;99.90;;;;;;5116091;28;19936;-74
2024/01/18 05:35:05;;;;;;;;;;;8.00;99.90;;;;;;5116193;27;19990;-74
2024/01/18 05:37:30;;;;;;;;;;;8.00;99.90;;;;;;5115578;28;19903;-74
2024/01/18 05:39:56;;;;;;;;;;;8.00;99.90;;;;;;5115945;28;19931;-73
2024/01/18 05:42:26;;;;;;;;;;;8.10;99.90;;;;;;5115806;28;19904;-73
2024/01/18 05:44:51;;;;;;;;;;;8.10;99.90;;;;;;5116432;28;19904;-74
2024/01/18 05:47:17;;;;;;;;;;;8.10;99.90;;;;;;5114494;28;20440;-73
2024/01/18 05:49:42;;;;;;;;;;;8.10;99.90;;;;;;5115739;28;19912;-73
2024/01/18 05:52:08;;;;;;;;;;;8.10;99.90;;;;;;5102526;28;20429;-74
2024/01/18 05:54:34;;;;;;;;;;;8.20;99.90;;;;;;5115927;28;20299;-73
2024/01/18 05:57:01;;;;;;;;;;;8.20;99.90;;;;;;5115747;28;19916;-73
2024/01/18 05:59:27;;;;;;;;;;;8.20;99.90;;;;;;5114603;28;19904;-74
2024/01/18 06:01:52;;;;;;;;;;;8.20;99.90;;;;;;5114478;28;20643;-74
2024/01/18 06:04:18;;;;;;;;;;;8.20;99.90;;;;;;5116005;28;19914;-74
2024/01/18 06:06:43;;;;;;;;;;;8.20;99.90;;;;;;5119181;28;19908;-74
2024/01/18 06:09:09;;;;;;;;;;;8.20;99.90;;;;;;5114197;28;19933;-73
2024/01/18 06:11:35;;;;;;;;;;;8.20;99.90;;;;;;5103441;28;19904;-73
2024/01/18 06:14:00;;;;;;;;;;;8.20;99.90;;;;;;5116430;28;19907;-74
2024/01/18 06:16:26;;;;;;;;;;;8.20;99.90;;;;;;5119173;28;19914;-73
2024/01/18 06:18:52;;;;;;;;;;;8.20;99.90;;;;;;5118386;28;19948;-74
2024/01/18 06:21:17;;;;;;;;;;;8.30;99.90;;;;;;5118291;28;20375;-73
2024/01/18 06:23:43;;;;;;;;;;;8.30;99.90;;;;;;5119392;28;19907;-74
2024/01/18 06:26:10;;;;;;;;;;;8.30;99.90;;;;;;5119625;28;20026;-74
2024/01/18 06:28:36;;;;;;;;;;;8.20;99.90;;;;;;5119563;28;20371;-74
2024/01/18 06:31:02;;;;;;;;;;;8.20;99.90;;;;;;5117636;28;19946;-74
2024/01/18 06:33:28;;;;;;;;;;;8.20;99.90;;;;;;5118952;28;19957;-74
2024/01/18 06:35:53;;;;;;;;;;;8.20;99.90;;;;;;5119146;28;19903;-74
2024/01/18 06:38:21;;;;;;;;;;;8.10;99.90;;;;;;5119240;28;20337;-74
2024/01/18 06:40:47;;;;;;;;;;;8.10;99.90;;;;;;5119272;27;19911;-75
2024/01/18 06:43:13;;;;;;;;;;;8.10;99.90;;;;;;5119026;28;19907;-74
2024/01/18 06:45:39;;;;;;;;;;;8.10;99.90;;;;;;5118693;28;19933;-75
2024/01/18 06:48:05;;;;;;;;;;;8.10;99.90;;;;;;5118813;28;20348;-73
2024/01/18 06:50:30;;;;;;;;;;;8.10;99.90;;;;;;5118836;28;19907;-74
2024/01/18 06:52:57;;;;;;;;;;;8.00;99.90;;;;;;5117433;28;19907;-74
2024/01/18 06:55:23;;;;;;;;;;;8.00;99.90;;;;;;5118499;28;19908;-76
2024/01/18 06:57:49;;;;;;;;;;;7.90;99.90;;;;;;5118847;28;20370;-74
2024/01/18 07:00:24;;;;;;;;;;;7.90;99.90;;;;;;5114006;28;19908;-74
2024/01/18 07:02:50;;;;;;;;;;;7.80;99.90;;;;;;5117648;28;19904;-74
2024/01/18 07:05:19;;;;;;;;;;;7.80;99.90;;;;;;5117210;28;19908;-74
2024/01/18 07:07:44;;;;;;;;;;;7.70;99.90;;;;;;5117221;28;19910;-74
2024/01/18 07:10:10;;;;;;;;;;;7.60;99.90;;;;;;5118366;28;19908;-74
2024/01/18 07:12:36;;;;;;;;;;;7.50;99.90;;;;;;5118524;28;19933;-74
2024/01/18 07:15:03;;;;;;;;;;;7.40;99.90;;;;;;5115569;28;19904;-74
2024/01/18 07:17:29;;;;;;;;;;;7.40;99.90;;;;;;5110715;28;20331;-74
2024/01/18 07:19:56;;;;;;;;;;;7.30;99.90;;;;;;5116507;28;19973;-74
2024/01/18 07:22:26;;;;;;;;;;;7.30;99.90;;;;;;5118464;28;19908;-74
2024/01/18 07:24:52;;;;;;;;;;;7.20;99.90;;;;;;5105244;28;19998;-74
2024/01/18 07:27:17;;;;;;;;;;;7.20;99.90;;;;;;5118366;28;19958;-74
2024/01/18 07:29:43;;;;;;;;;;;7.10;99.90;;;;;;5118111;28;19904;-73
2024/01/18 07:32:08;;;;;;;;;;;7.10;99.90;;;;;;5101776;28;19990;-75
2024/01/18 07:34:34;;;;;;;;;;;7.00;99.90;;;;;;5101971;28;19914;-77
2024/01/18 07:37:00;;;;;;;;;;;6.90;99.90;;;;;;5109967;28;19929;-77
2024/01/18 07:39:26;;;;;;;;;;;6.90;99.90;;;;;;5102426;28;20437;-76
2024/01/18 07:41:52;;;;;;;;;;;6.80;99.90;;;;;;5110943;28;19957;-77
2024/01/18 07:44:18;;;;;;;;;;;6.80;99.90;;;;;;5111949;28;19908;-76
2024/01/18 07:46:43;;;;;;;;;;;6.80;99.90;;;;;;5110875;28;19908;-76
2024/01/18 07:49:09;;;;;;;;;;;6.80;99.90;;;;;;5110098;28;19912;-76
2024/01/18 07:51:34;;;;;;;;;;;6.80;99.90;;;;;;5106461;28;19907;-77
2024/01/18 07:54:00;;;;;;;;;;;6.80;99.90;;;;;;5103651;28;19912;-77
2024/01/18 07:56:27;;;;;;;;;;;6.80;99.90;;;;;;5105037;28;19919;-75
2024/01/18 07:58:52;;;;;;;;;;;6.80;99.90;;;;;;5105350;27;19960;-76
2024/01/18 08:01:18;;;;;;;;;;;6.80;99.90;;;;;;5109299;28;19914;-75
2024/01/18 08:03:43;;;;;;;;;;;6.80;99.90;;;;;;5106342;28;19912;-75
2024/01/18 08:06:11;;;;;;;;;;;6.80;99.90;;;;;;5108094;28;19907;-75
2024/01/18 08:08:37;;;;;;;;;;;6.80;99.90;;;;;;5104099;28;19991;-75
2024/01/18 08:11:02;;;;;;;;;;;6.90;99.90;;;;;;5108648;28;19923;-75
2024/01/18 08:13:28;;;;;;;;;;;7.00;99.90;;;;;;5107684;28;19912;-75
2024/01/18 08:15:56;;;;;;;;;;;7.10;99.90;;;;;;5108895;28;19914;-75
2024/01/18 08:18:23;;;;;;;;;;;7.30;99.90;;;;;;5107146;28;20391;-75
2024/01/18 08:20:50;;;;;;;;;;;7.40;99.90;;;;;;5110334;28;19958;-75
2024/01/18 08:23:15;;;;;;;;;;;7.50;99.90;;;;;;5107624;28;19903;-76
2024/01/18 08:25:41;;;;;;;;;;;7.60;99.90;;;;;;5103990;28;19911;-76
2024/01/18 08:28:06;;;;;;;;;;;7.70;99.90;;;;;;5108261;28;19995;-76
2024/01/18 08:30:32;;;;;;;;;;;7.80;99.90;;;;;;5104990;28;20006;-76
2024/01/18 08:32:57;;;;;;;;;;;7.70;99.90;;;;;;5107825;28;19915;-76
2024/01/18 08:35:23;;;;;;;;;;;7.80;99.90;;;;;;5110621;28;19907;-76
2024/01/18 08:37:48;;;;;;;;;;;7.80;99.90;;;;;;5105959;28;19994;-78
2024/01/18 08:40:14;;;;;;;;;;;7.70;99.90;;;;;;5106863;28;19998;-76
2024/01/18 08:42:43;;;;;;;;;;;7.80;99.90;;;;;;5107396;28;19907;-75
2024/01/18 08:45:09;;;;;;;;;;;7.80;99.90;;;;;;5107342;28;20450;-75
2024/01/18 08:47:35;;;;;;;;;;;7.80;99.90;;;;;;5109468;28;20443;-76
2024/01/18 08:50:00;;;;;;;;;;;7.90;99.90;;;;;;5106851;28;20636;-76
2024/01/18 08:52:26;;;;;;;;;;;8.00;99.90;;;;;;5103855;28;19915;-77
2024/01/18 08:54:51;;;;;;;;;;;8.10;99.90;;;;;;5107225;28;20024;-76
2024/01/18 08:57:17;;;;;;;;;;;8.10;99.90;;;;;;5104687;28;20023;-76
2024/01/18 08:59:43;;;;;;;;;;;8.20;99.90;;;;;;5106489;28;19912;-75
2024/01/18 09:02:09;;;;;;;;;;;8.10;99.90;;;;;;5109378;28;19943;-76
2024/01/18 09:04:34;;;;;;;;;;;8.10;99.90;;;;;;5108264;28;20295;-76
2024/01/18 09:07:00;;;;;;;;;;;8.10;99.90;;;;;;5107432;28;19908;-76
2024/01/18 09:09:26;;;;;;;;;;;8.00;99.90;;;;;;5106812;28;19912;-76
2024/01/18 09:11:52;;;;;;;;;;;8.00;99.90;;;;;;5102500;28;19912;-76
2024/01/18 09:14:18;;;;;;;;;;;8.00;99.90;;;;;;5100625;28;20055;-76
2024/01/18 09:16:43;;;;;;;;;;;8.00;99.90;;;;;;5106799;28;19911;-77
2024/01/18 09:19:09;;;;;;;;;;;8.00;99.90;;;;;;5106991;28;19908;-76
2024/01/18 09:21:39;;;;;;;;;;;8.00;99.90;;;;;;5109084;28;19912;-76
2024/01/18 09:24:05;;;;;;;;;;;7.90;99.90;;;;;;5105260;28;19946;-76
2024/01/18 09:26:30;;;;;;;;;;;7.90;99.90;;;;;;5107445;28;19950;-76
2024/01/18 09:28:56;;;;;;;;;;;7.90;99.90;;;;;;5110879;28;19911;-76
2024/01/18 09:31:22;;;;;;;;;;;7.90;99.90;;;;;;5105511;28;20352;-76
2024/01/18 09:33:47;;;;;;;;;;;8.00;99.90;;;;;;5109889;28;19912;-76
2024/01/18 09:36:13;;;;;;;;;;;8.00;99.90;;;;;;5107986;27;19932;-75
2024/01/18 09:38:38;;;;;;;;;;;8.00;99.90;;;;;;5112446;28;19915;-76
2024/01/18 09:41:06;;;;;;;;;;;8.10;99.90;;;;;;5110866;28;19914;-76
2024/01/18 09:43:34;;;;;;;;;;;8.30;99.90;;;;;;5113089;28;19903;-76
2024/01/18 09:46:03;;;;;;;;;;;8.50;99.90;;;;;;5113773;28;19915;-76
2024/01/18 09:48:29;;;;;;;;;;;8.60;99.90;;;;;;5115933;28;19903;-76
2024/01/18 09:50:55;;;;;;;;;;;8.80;99.90;;;;;;5116423;28;19918;-76
2024/01/18 09:53:20;;;;;;;;;;;9.00;99.90;;;;;;5117450;28;19915;-76
2024/01/18 09:55:49;;;;;;;;;;;9.20;99.90;;;;;;5115022;27;19911;-76
2024/01/18 09:58:15;;;;;;;;;;;9.30;99.90;;;;;;5114224;28;19919;-76
2024/01/18 10:00:42;;;;;;;;;;;9.40;99.90;;;;;;5117832;28;19903;-76
2024/01/18 10:03:07;;;;;;;;;;;9.60;99.90;;;;;;5115671;28;19904;-76
2024/01/18 10:05:33;;;;;;;;;;;9.70;99.90;;;;;;5117072;28;20358;-75
2024/01/18 10:07:58;;;;;;;;;;;9.70;99.90;;;;;;5119139;27;19904;-75
2024/01/18 10:10:24;;;;;;;;;;;9.70;99.90;;;;;;5113771;28;19904;-77
2024/01/18 10:12:50;;;;;;;;;;;9.80;99.90;;;;;;5114600;28;19918;-76
2024/01/18 10:15:35;;;;;;;;;;;10.00;99.90;;;;;;5115724;27;19908;-76
2024/01/18 10:18:04;;;;;;;;;;;10.20;99.90;;;;;;5113021;28;19907;-77
2024/01/18 10:20:30;;;;;;;;;;;10.30;99.90;;;;;;5112892;28;19945;-76
2024/01/18 10:22:55;;;;;;;;;;;10.50;99.90;;;;;;5110643;28;20375;-76
2024/01/18 10:25:23;;;;;;;;;;;10.60;99.90;;;;;;5114841;28;19986;-75
2024/01/18 10:27:51;;;;;;;;;;;10.70;99.90;;;;;;5115853;28;19903;-75
2024/01/18 10:30:16;;;;;;;;;;;10.80;99.90;;;;;;5116700;28;20011;-74
2024/01/18 10:32:45;;;;;;;;;;;10.90;99.90;;;;;;5113640;28;19946;-75
2024/01/18 10:35:19;;;;;;;;;;;11.00;99.90;;;;;;5114422;28;19904;-75
2024/01/18 10:37:44;;;;;;;;;;;11.20;99.90;;;;;;5115960;28;20428;-75
2024/01/18 10:40:10;;;;;;;;;;;11.50;99.90;;;;;;5112712;28;19907;-75
2024/01/18 10:42:36;;;;;;;;;;;11.70;99.90;;;;;;5115130;27;19931;-75
2024/01/18 10:45:02;;;;;;;;;;;11.80;99.90;;;;;;5114192;28;19907;-75
2024/01/18 10:47:29;;;;;;;;;;;11.90;99.90;;;;;;5115852;27;19911;-75
2024/01/18 10:49:54;;;;;;;;;;;11.90;99.90;;;;;;5115793;28;19908;-75
2024/01/18 10:52:22;;;;;;;;;;;12.00;99.90;;;;;;5110166;28;19903;-75
2024/01/18 10:54:48;;;;;;;;;;;12.00;99.90;;;;;;5114719;28;19965;-75
2024/01/18 10:57:13;;;;;;;;;;;12.10;99.90;;;;;;5115977;28;19998;-75
2024/01/18 10:59:39;;;;;;;;;;;12.10;99.90;;;;;;5110264;28;19954;-75
2024/01/18 11:02:05;;;;;;;;;;;12.20;99.90;;;;;;5115767;28;19904;-75
2024/01/18 11:04:31;;;;;;;;;;;12.20;99.90;;;;;;5115900;28;19907;-75
2024/01/18 11:06:57;;;;;;;;;;;12.30;99.90;;;;;;5116736;28;19956;-75
2024/01/18 11:09:27;;;;;;;;;;;12.40;99.90;;;;;;5116807;28;19915;-75
2024/01/18 11:11:53;;;;;;;;;;;12.40;99.90;;;;;;5112183;28;19919;-76
2024/01/18 11:14:19;;;;;;;;;;;12.40;99.90;;;;;;5110188;28;19922;-76
2024/01/18 11:16:44;;;;;;;;;;;12.40;99.90;;;;;;5109200;28;20572;-76
2024/01/18 11:19:10;;;;;;;;;;;12.30;99.90;;;;;;5112300;28;19914;-76
2024/01/18 11:21:42;;;;;;;;;;;12.30;99.90;;;;;;5111855;28;19903;-76
2024/01/18 11:24:08;;;;;;;;;;;12.20;99.90;;;;;;5110158;28;19907;-76
2024/01/18 11:26:34;;;;;;;;;;;12.10;99.90;;;;;;5104926;28;20378;-76
2024/01/18 11:29:16;;;;;;;;;;;12.10;99.90;;;;;;5109036;28;19912;-76
2024/01/18 11:31:51;;;;;;;;;;;12.10;99.90;;;;;;5104385;28;19912;-76
2024/01/18 11:34:30;;;;;;;;;;;12.10;99.90;;;;;;5107423;28;19911;-76
2024/01/18 11:37:10;;;;;;;;;;;12.10;99.90;;;;;;5111005;28;19988;-76
2024/01/18 11:39:47;;;;;;;;;;;12.20;99.90;;;;;;5109007;28;19904;-76
2024/01/18 11:42:17;;;;;;;;;;;12.30;99.90;;;;;;5111121;28;19912;-76
2024/01/18 11:44:55;;;;;;;;;;;12.40;99.90;;;;;;5104983;28;20299;-76
2024/01/18 11:47:27;;;;;;;;;;;12.50;99.90;;;;;;5110587;27;19908;-76
2024/01/18 11:49:52;;;;;;;;;;;12.60;99.90;;;;;;5109401;28;20458;-77
2024/01/18 11:52:19;;;;;;;;;;;12.80;99.90;;;;;;5106477;28;20272;-75
2024/01/18 11:54:46;;;;;;;;;;;13.00;99.90;;;;;;5108870;28;19907;-75
2024/01/18 11:57:13;;;;;;;;;;;13.10;99.90;;;;;;5109954;28;19919;-76
2024/01/18 11:59:43;;;;;;;;;;;13.20;99.90;;;;;;5105802;28;19914;-75
2024/01/18 12:02:09;;;;;;;;;;;13.40;99.90;;;;;;5107000;28;19912;-76
2024/01/18 12:04:35;;;;;;;;;;;13.60;99.90;;;;;;5111607;28;19911;-76
2024/01/18 12:07:01;;;;;;;;;;;13.80;99.90;;;;;;5108098;28;19908;-76
2024/01/18 12:09:27;;;;;;;;;;;13.90;99.90;;;;;;5107064;28;19926;-77
2024/01/18 12:11:55;;;;;;;;;;;13.90;99.90;;;;;;5108420;28;20426;-77
2024/01/18 12:14:20;;;;;;;;;;;14.00;99.90;;;;;;5105681;28;20320;-77
2024/01/18 12:16:46;;;;;;;;;;;14.00;99.90;;;;;;5107446;28;19960;-77
2024/01/18 12:19:12;;;;;;;;;;;13.90;99.90;;;;;;5104782;28;19911;-77
2024/01/18 12:21:38;;;;;;;;;;;13.90;99.90;;;;;;5106461;28;19911;-77
2024/01/18 12:24:04;;;;;;;;;;;13.90;99.90;;;;;;5108733;28;19911;-78
2024/01/18 12:26:30;;;;;;;;;;;13.80;99.90;;;;;;5107958;28;20410;-77
2024/01/18 12:28:56;;;;;;;;;;;13.80;99.90;;;;;;5108293;28;20283;-78
2024/01/18 12:31:22;;;;;;;;;;;13.80;99.90;;;;;;5109454;28;19936;-79
2024/01/18 12:33:48;;;;;;;;;;;13.80;99.90;;;;;;5106681;28;20807;-79
2024/01/18 12:36:13;;;;;;;;;;;13.90;99.90;;;;;;5103141;28;19951;-79
2024/01/18 12:38:39;;;;;;;;;;;14.00;99.90;;;;;;5102538;28;19922;-79
2024/01/18 12:41:04;;;;;;;;;;;14.00;99.90;;;;;;5111147;28;20294;-78
2024/01/18 12:43:30;;;;;;;;;;;14.10;99.90;;;;;;5105472;28;19908;-77
2024/01/18 12:45:56;;;;;;;;;;;14.10;99.90;;;;;;5107167;28;19950;-79
2024/01/18 12:48:23;;;;;;;;;;;14.10;99.90;;;;;;5105584;28;20002;-78
2024/01/18 12:50:48;;;;;;;;;;;14.00;99.90;;;;;;5101060;28;19912;-78
2024/01/18 12:53:14;;;;;;;;;;;14.00;99.90;;;;;;5105777;28;20003;-77
2024/01/18 12:55:40;;;;;;;;;;;14.00;99.90;;;;;;5108762;28;19926;-78
2024/01/18 12:58:05;;;;;;;;;;;14.00;99.90;;;;;;5110977;28;19911;-79
2024/01/18 13:00:34;;;;;;;;;;;14.00;99.90;;;;;;5107655;28;19911;-78
2024/01/18 13:03:12;;;;;;;;;;;14.00;99.90;;;;;;5108135;28;19915;-78
2024/01/18 13:05:44;;;;;;;;;;;14.10;99.90;;;;;;5106961;28;19904;-79
2024/01/18 13:08:10;;;;;;;;;;;14.10;99.90;;;;;;5102695;28;19914;-79
2024/01/18 13:10:36;;;;;;;;;;;14.20;99.90;;;;;;5107060;28;19912;-79
2024/01/18 13:13:03;;;;;;;;;;;14.40;99.90;;;;;;5103239;28;19923;-79
2024/01/18 13:15:28;;;;;;;;;;;14.60;99.90;;;;;;5105479;28;19999;-80
2024/01/18 13:17:54;;;;;;;;;;;14.80;99.90;;;;;;5107915;28;20057;-79
2024/01/18 13:20:22;;;;;;;;;;;15.10;99.90;;;;;;5105390;28;20021;-79
2024/01/18 13:22:48;;;;;;;;;;;15.40;99.90;;;;;;5104858;28;20283;-80
2024/01/18 13:25:14;;;;;;;;;;;15.60;99.90;;;;;;5111022;28;20447;-80
2024/01/18 13:27:42;;;;;;;;;;;15.80;99.90;;;;;;5107644;28;19911;-78
2024/01/18 13:30:09;;;;;;;;;;;16.10;99.90;;;;;;5104162;28;19911;-80
2024/01/18 13:32:35;;;;;;;;;;;16.20;99.90;;;;;;5109554;28;21794;-79
2024/01/18 13:35:00;;;;;;;;;;;16.40;99.90;;;;;;5103989;28;19919;-79
2024/01/18 13:37:26;;;;;;;;;;;16.50;99.90;;;;;;5107623;28;19914;-79
2024/01/18 13:39:51;;;;;;;;;;;16.50;99.90;;;;;;5104130;28;19908;-79
2024/01/18 13:42:17;;;;;;;;;;;16.60;99.90;;;;;;5110499;28;19997;-79
2024/01/18 13:44:42;;;;;;;;;;;16.60;99.90;;;;;;5108951;28;19993;-81
2024/01/18 13:47:08;;;;;;;;;;;16.70;99.90;;;;;;5113838;28;20007;-80
2024/01/18 13:49:34;;;;;;;;;;;16.80;99.90;;;;;;5110556;28;19912;-80
2024/01/18 13:51:59;;;;;;;;;;;16.80;99.90;;;;;;5110814;28;20363;-80
2024/01/18 13:54:25;;;;;;;;;;;16.90;99.90;;;;;;5110782;28;20387;-81
2024/01/18 13:56:50;;;;;;;;;;;17.00;99.90;;;;;;5107602;28;20390;-81
2024/01/18 13:59:16;;;;;;;;;;;17.20;99.90;;;;;;5107714;28;19908;-79
2024/01/18 14:01:41;;;;;;;;;;;17.10;99.90;;;;;;5113326;28;19942;-81
2024/01/18 14:04:07;;;;;;;;;;;17.10;99.90;;;;;;5110413;28;19951;-80
2024/01/18 14:06:32;;;;;;;;;;;17.10;99.90;;;;;;5113671;28;19962;-80
2024/01/18 14:08:58;;;;;;;;;;;17.20;99.90;;;;;;5114775;28;20364;-80
2024/01/18 14:11:24;;;;;;;;;;;17.20;99.90;;;;;;5115126;28;20003;-80
2024/01/18 14:13:49;;;;;;;;;;;17.20;99.90;;;;;;5111747;28;20371;-81
2024/01/18 14:16:15;;;;;;;;;;;17.10;99.90;;;;;;5112852;28;20409;-80
2024/01/18 14:18:41;;;;;;;;;;;17.00;99.90;;;;;;5112972;28;20397;-78
2024/01/18 14:21:07;;;;;;;;;;;16.80;99.90;;;;;;5114168;28;20041;-79